Time;durP1;ratioP1;P1;durP2;ratioP2;P2;SDS_P1;SDS_P2;PMS_P1;PMS_P2;Temp;Humidity;BMP_temperature;BMP_pressure;BME280_temperature;BME280_humidity;BME280_pressure;Samples;Min_cycle;Max_cycle;Signal;HPM_P1;HPM_P2
2022/08/14 00:00:47;;;;;;;1.00;1.00;;;;;;;19.32;61.51;95187.88;4368754;32;20188;-60
2022/08/14 00:03:26;;;;;;;1.20;1.20;;;;;;;19.41;61.91;95191.13;4382912;32;20188;-61
2022/08/14 00:05:53;;;;;;;1.40;1.33;;;;;;;19.32;62.11;95187.09;4385757;32;20188;-62
2022/08/14 00:08:18;;;;;;;0.50;0.50;;;;;;;19.42;62.08;95186.53;4376063;32;20203;-60
2022/08/14 00:10:44;;;;;;;1.33;1.33;;;;;;;19.55;61.98;95179.91;4375170;32;20192;-61
2022/08/14 00:13:09;;;;;;;0.73;0.73;;;;;;;19.69;61.52;95176.75;4376229;32;20189;-60
2022/08/14 00:15:39;;;;;;;0.70;0.70;;;;;;;19.66;61.28;95175.53;4374425;32;20249;-60
2022/08/14 00:18:07;;;;;;;1.03;1.00;;;;;;;19.64;60.92;95175.09;4394758;32;20184;-60
2022/08/14 00:20:36;;;;;;;1.43;0.97;;;;;;;19.66;60.83;95172.84;4374763;32;20188;-60
2022/08/14 00:23:04;;;;;;;0.90;0.90;;;;;;;19.65;60.40;95176.66;4385049;32;20200;-60
2022/08/14 00:25:29;;;;;;;0.83;0.83;;;;;;;19.51;60.33;95176.37;4376356;32;20200;-61
2022/08/14 00:27:55;;;;;;;2.30;1.83;;;;;;;19.59;60.39;95174.59;4380263;32;20286;-61
2022/08/14 00:30:20;;;;;;;1.03;1.03;;;;;;;19.66;60.17;95172.84;4383225;32;20237;-60
2022/08/14 00:32:45;;;;;;;1.00;1.00;;;;;;;19.55;60.47;95171.84;4384614;32;20264;-60
2022/08/14 00:35:11;;;;;;;1.50;1.40;;;;;;;19.42;60.83;95165.78;4374077;32;20299;-61
2022/08/14 00:37:44;;;;;;;1.33;1.27;;;;;;;19.33;61.23;95167.91;4371830;32;20197;-61
2022/08/14 00:40:13;;;;;;;1.10;1.10;;;;;;;19.19;61.70;95163.00;4380108;32;20172;-61
2022/08/14 00:42:39;;;;;;;1.40;1.40;;;;;;;19.36;61.99;95158.34;4390021;32;20251;-60
2022/08/14 00:45:07;;;;;;;1.00;1.00;;;;;;;19.47;61.47;95162.81;4384445;32;20297;-61
2022/08/14 00:47:34;;;;;;;0.77;0.77;;;;;;;19.55;61.50;95161.06;4380275;32;20185;-61
2022/08/14 00:50:01;;;;;;;4.57;2.07;;;;;;;19.46;62.07;95155.88;4382291;32;20200;-60
2022/08/14 00:52:27;;;;;;;0.80;0.80;;;;;;;19.48;62.03;95158.22;4384185;32;20185;-60
2022/08/14 00:54:53;;;;;;;1.00;1.00;;;;;;;19.34;61.83;95152.53;4376730;32;20223;-61
2022/08/14 00:57:24;;;;;;;2.13;0.70;;;;;;;19.45;61.90;95150.84;4377585;32;20253;-60
2022/08/14 00:59:50;;;;;;;1.00;1.00;;;;;;;19.49;61.00;95149.03;4368833;32;20240;-61
2022/08/14 01:02:18;;;;;;;0.97;0.97;;;;;;;19.46;61.03;95141.66;4391732;32;20197;-61
2022/08/14 01:04:44;;;;;;;1.20;1.20;;;;;;;19.43;61.35;95145.03;4384181;32;20189;-61
2022/08/14 01:07:10;;;;;;;0.73;0.73;;;;;;;19.16;61.45;95142.19;4373135;32;20188;-60
2022/08/14 01:09:36;;;;;;;0.60;0.60;;;;;;;19.32;62.14;95136.78;4384401;32;20210;-60
2022/08/14 01:12:03;;;;;;;0.60;0.60;;;;;;;19.02;62.70;95136.50;4370896;32;20201;-60
2022/08/14 01:14:29;;;;;;;1.60;1.23;;;;;;;18.86;62.78;95136.56;4394632;32;20246;-61
2022/08/14 01:16:54;;;;;;;0.67;0.67;;;;;;;19.02;63.26;95136.50;4376280;32;20201;-61
2022/08/14 01:22:06;;;;;;;0.67;0.67;;;;;;;19.35;62.24;95129.87;4378333;32;20195;-60
2022/08/14 01:24:32;;;;;;;0.90;0.90;;;;;;;19.34;62.28;95125.63;4369924;32;20246;-61
2022/08/14 01:26:58;;;;;;;0.87;0.87;;;;;;;19.00;62.69;95127.22;4375529;32;20176;-61
2022/08/14 01:29:25;;;;;;;0.87;0.87;;;;;;;18.96;62.98;95123.69;4370265;32;20264;-61
2022/08/14 01:31:53;;;;;;;0.80;0.80;;;;;;;19.01;63.51;95118.81;4388596;32;20200;-60
2022/08/14 01:34:19;;;;;;;1.80;1.10;;;;;;;19.30;62.47;95122.87;4378420;32;20200;-60
2022/08/14 01:36:45;;;;;;;0.67;0.67;;;;;;;19.36;61.94;95120.69;4383983;32;20336;-61
2022/08/14 01:39:13;;;;;;;0.80;0.80;;;;;;;19.43;61.94;95110.06;4391440;32;20208;-60
2022/08/14 01:41:41;;;;;;;1.17;1.17;;;;;;;19.24;61.59;95110.84;4376817;32;20224;-61
2022/08/14 01:44:11;;;;;;;1.33;1.23;;;;;;;19.13;62.76;95112.53;4385651;32;20260;-61
2022/08/14 01:46:39;;;;;;;0.97;0.97;;;;;;;19.09;62.80;95106.31;4382339;32;20189;-60
2022/08/14 01:49:07;;;;;;;0.83;0.83;;;;;;;19.09;63.14;95101.72;4364576;32;20192;-61
2022/08/14 01:51:34;;;;;;;0.67;0.67;;;;;;;19.08;62.66;95097.47;4362072;32;20203;-61
2022/08/14 01:54:06;;;;;;;0.80;0.80;;;;;;;19.08;62.54;95089.41;4385669;32;20249;-61
2022/08/14 01:56:39;;;;;;;1.70;1.63;;;;;;;19.29;62.16;95074.81;4373470;32;20189;-60
2022/08/14 01:59:18;;;;;;;0.83;0.83;;;;;;;19.05;63.03;95082.03;4379927;32;20185;-61
2022/08/14 02:01:44;;;;;;;2.17;1.10;;;;;;;18.94;63.88;95072.94;4382076;32;20185;-61
2022/08/14 02:04:09;;;;;;;1.00;1.00;;;;;;;18.79;63.51;95071.09;4383909;32;20224;-61
2022/08/14 02:06:36;;;;;;;1.67;1.57;;;;;;;18.57;64.70;95060.97;4386141;32;20189;-61
2022/08/14 02:09:06;;;;;;;0.80;0.80;;;;;;;18.82;63.93;95057.72;4376842;32;20251;-61
2022/08/14 02:11:34;;;;;;;0.80;0.80;;;;;;;18.82;63.18;95056.97;4370486;32;20180;-61
2022/08/14 02:14:08;;;;;;;1.30;1.30;;;;;;;18.85;62.82;95062.41;4391632;32;20196;-61
2022/08/14 02:16:38;;;;;;;0.93;0.93;;;;;;;18.65;63.89;95060.81;4371725;32;20180;-61
2022/08/14 02:19:06;;;;;;;1.10;1.10;;;;;;;18.61;64.24;95056.50;4369936;32;20222;-61
2022/08/14 02:21:32;;;;;;;0.93;0.93;;;;;;;18.75;64.22;95059.47;4376902;32;20215;-60
2022/08/14 02:24:03;;;;;;;1.27;1.27;;;;;;;18.86;63.86;95055.13;4382777;32;20200;-60
2022/08/14 02:26:33;;;;;;;1.23;1.23;;;;;;;18.92;63.73;95056.38;4385704;32;20232;-60
2022/08/14 02:29:02;;;;;;;0.97;0.97;;;;;;;18.88;63.14;95060.94;4382843;32;20302;-61
2022/08/14 02:31:31;;;;;;;1.27;1.27;;;;;;;18.66;63.39;95059.69;4380073;32;20317;-60
2022/08/14 02:33:58;;;;;;;0.90;0.90;;;;;;;18.64;64.44;95053.87;4393281;32;20215;-61
2022/08/14 02:36:23;;;;;;;0.60;0.60;;;;;;;18.75;63.71;95048.72;4379859;32;20199;-61
2022/08/14 02:38:49;;;;;;;3.77;1.67;;;;;;;18.66;64.35;95048.16;4360955;32;20177;-61
2022/08/14 02:41:24;;;;;;;0.60;0.60;;;;;;;18.78;63.71;95046.13;4367589;32;20235;-60
2022/08/14 02:43:50;;;;;;;1.20;1.20;;;;;;;18.74;63.70;95039.09;4376760;32;20207;-61
2022/08/14 02:46:30;;;;;;;0.70;0.70;;;;;;;18.70;63.59;95040.97;4379043;32;20188;-60
2022/08/14 02:48:56;;;;;;;1.03;1.03;;;;;;;18.74;63.29;95045.25;4363875;32;20218;-61
2022/08/14 02:51:25;;;;;;;0.80;0.80;;;;;;;18.63;64.52;95043.50;4381874;32;20193;-62
2022/08/14 02:53:51;;;;;;;0.97;0.97;;;;;;;18.51;63.78;95042.44;4381918;32;20234;-61
2022/08/14 02:56:26;;;;;;;1.33;1.33;;;;;;;18.61;64.03;95037.69;4376273;32;20264;-61
2022/08/14 02:58:53;;;;;;;0.53;0.53;;;;;;;18.41;63.86;95037.63;4392440;32;20196;-62
2022/08/14 03:01:20;;;;;;;0.67;0.67;;;;;;;18.48;64.40;95032.41;4373595;32;20247;-61
2022/08/14 03:03:48;;;;;;;0.87;0.87;;;;;;;18.25;64.87;95028.81;4361272;32;20193;-60
2022/08/14 03:06:27;;;;;;;1.03;1.03;;;;;;;18.29;65.45;95031.59;4371419;32;20241;-60
2022/08/14 03:08:53;;;;;;;1.17;1.17;;;;;;;18.50;65.13;95032.81;4380656;32;20188;-61
2022/08/14 03:11:21;;;;;;;0.73;0.73;;;;;;;18.37;64.97;95025.22;4377514;32;20189;-61
2022/08/14 03:13:52;;;;;;;0.70;0.70;;;;;;;18.10;65.75;95022.31;4380210;32;20268;-60
2022/08/14 03:16:26;;;;;;;0.90;0.90;;;;;;;18.23;65.22;95025.69;4371277;32;20215;-61
2022/08/14 03:18:53;;;;;;;0.90;0.90;;;;;;;18.29;65.15;95024.28;4366603;32;20207;-62
2022/08/14 03:21:36;;;;;;;2.83;1.10;;;;;;;18.39;64.88;95026.44;4384893;32;20237;-60
2022/08/14 03:26:32;;;;;;;0.80;0.80;;;;;;;18.35;65.07;95022.09;4387080;32;20208;-61
2022/08/14 03:28:58;;;;;;;1.00;1.00;;;;;;;18.25;65.19;95011.91;4383264;32;20195;-60
2022/08/14 03:31:37;;;;;;;3.03;1.57;;;;;;;18.30;64.99;95008.94;4384782;32;20180;-60
2022/08/14 03:34:03;;;;;;;1.10;1.10;;;;;;;18.36;65.54;95002.97;4387645;32;20219;-61
2022/08/14 03:36:31;;;;;;;0.70;0.70;;;;;;;18.18;65.43;95007.16;4385614;32;20260;-60
2022/08/14 03:38:58;;;;;;;0.90;0.90;;;;;;;18.03;64.68;94999.91;4377587;32;20188;-61
2022/08/14 03:41:27;;;;;;;0.97;0.97;;;;;;;17.68;65.30;94991.78;4381910;32;20188;-60
2022/08/14 03:43:57;;;;;;;0.90;0.90;;;;;;;17.64;66.75;94990.91;4379239;32;20181;-61
2022/08/14 03:46:37;;;;;;;1.97;1.00;;;;;;;17.87;67.30;94997.25;4377023;32;20223;-61
2022/08/14 03:49:04;;;;;;;0.87;0.87;;;;;;;17.71;66.39;94989.19;4379341;32;20196;-61
2022/08/14 03:51:30;;;;;;;1.50;1.40;;;;;;;17.60;66.19;94993.47;4380008;32;20288;-61
2022/08/14 03:53:57;;;;;;;0.70;0.70;;;;;;;17.90;66.10;94995.75;4370150;32;20189;-61
2022/08/14 03:56:28;;;;;;;0.77;0.77;;;;;;;18.00;66.10;94993.31;4374432;32;20209;-61
2022/08/14 03:58:58;;;;;;;0.90;0.90;;;;;;;18.09;65.54;95001.97;4374982;32;20241;-61
2022/08/14 04:01:25;;;;;;;1.40;1.30;;;;;;;18.13;65.21;95004.72;4373071;32;20230;-61
2022/08/14 04:03:54;;;;;;;2.40;1.27;;;;;;;18.02;65.87;95003.72;4367878;32;20181;-60
2022/08/14 04:06:33;;;;;;;1.53;1.40;;;;;;;18.02;65.29;94999.13;4382577;32;20202;-60
2022/08/14 04:08:58;;;;;;;1.13;1.13;;;;;;;18.08;64.89;94986.97;4383644;32;20289;-60
2022/08/14 04:11:24;;;;;;;0.63;0.63;;;;;;;18.07;65.54;94984.66;4371867;32;20188;-61
2022/08/14 04:13:49;;;;;;;0.87;0.87;;;;;;;17.84;64.75;94987.19;4374137;32;20181;-60
2022/08/14 04:16:30;;;;;;;0.90;0.90;;;;;;;17.60;65.78;94984.66;4380588;32;20264;-61
2022/08/14 04:18:58;;;;;;;1.10;1.10;;;;;;;17.72;66.00;94979.22;4373607;32;20179;-61
2022/08/14 04:21:27;;;;;;;1.90;1.17;;;;;;;17.84;65.46;94985.28;4376867;32;20181;-60
2022/08/14 04:23:54;;;;;;;0.57;0.57;;;;;;;17.82;66.07;94990.22;4375482;32;20239;-61
2022/08/14 04:26:28;;;;;;;1.07;1.03;;;;;;;17.78;65.35;94988.56;4395367;32;20228;-60
2022/08/14 04:28:55;;;;;;;1.40;1.40;;;;;;;17.94;65.05;94991.25;4375482;32;20191;-60
2022/08/14 04:31:24;;;;;;;1.60;1.33;;;;;;;17.95;65.31;94992.81;4368078;32;20238;-60
2022/08/14 04:33:51;;;;;;;0.93;0.93;;;;;;;18.10;64.67;94987.41;4367500;32;20248;-60
2022/08/14 04:36:25;;;;;;;1.20;1.20;;;;;;;18.06;64.67;94988.47;4388909;32;20192;-61
2022/08/14 04:44:19;;;;;;;0.87;0.87;;;;;;;17.73;66.62;94976.19;4367354;32;20262;-60
2022/08/14 04:48:11;;;;;;;0.93;0.93;;;;;;;17.67;66.20;94966.06;4373223;32;20193;-60
2022/08/14 04:49:30;;;;;;;0.73;0.73;;;;;;;17.80;65.94;94959.50;4376768;32;20239;-60
2022/08/14 04:51:55;;;;;;;0.97;0.97;;;;;;;17.83;65.33;94967.62;4378591;32;20207;-60
2022/08/14 04:54:27;;;;;;;1.30;1.30;;;;;;;17.62;65.88;94959.03;4388994;32;20185;-60
2022/08/14 04:56:54;;;;;;;0.93;0.93;;;;;;;17.46;65.23;94966.28;4369241;32;20204;-64
2022/08/14 04:59:20;;;;;;;10.07;1.03;;;;;;;17.53;65.69;94953.06;4367246;32;20192;-62
2022/08/14 05:01:46;;;;;;;0.60;0.60;;;;;;;17.46;65.55;94958.25;4373489;32;20192;-60
2022/08/14 05:04:11;;;;;;;3.30;0.80;;;;;;;17.63;66.44;94960.59;4371479;32;20311;-60
2022/08/14 05:06:37;;;;;;;1.23;1.23;;;;;;;17.63;65.95;94960.59;4386646;32;20215;-59
2022/08/14 05:09:04;;;;;;;0.80;0.80;;;;;;;17.83;65.66;94964.94;4382521;32;20202;-60
2022/08/14 05:11:34;;;;;;;0.60;0.60;;;;;;;17.94;64.81;94954.44;4382725;32;20238;-60
2022/08/14 05:14:00;;;;;;;3.93;1.10;;;;;;;17.83;64.85;94948.84;4369306;32;20256;-60
2022/08/14 05:16:33;;;;;;;0.67;0.67;;;;;;;17.84;65.08;94945.03;4380368;32;20195;-60
2022/08/14 05:18:58;;;;;;;0.70;0.70;;;;;;;18.02;64.88;94939.28;4372885;32;20202;-60
2022/08/14 05:21:28;;;;;;;0.67;0.67;;;;;;;17.94;65.32;94937.56;4375090;32;20192;-60
2022/08/14 05:23:54;;;;;;;0.70;0.70;;;;;;;18.15;64.24;94943.41;4387298;32;20185;-60
2022/08/14 05:26:20;;;;;;;0.67;0.67;;;;;;;18.08;64.57;94943.28;4377387;32;20262;-60
2022/08/14 05:28:46;;;;;;;0.90;0.90;;;;;;;17.96;64.98;94946.03;4373172;32;20188;-60
2022/08/14 05:31:20;;;;;;;0.90;0.90;;;;;;;17.80;64.72;94949.53;4382063;32;22604;-60
2022/08/14 05:33:48;;;;;;;0.50;0.50;;;;;;;17.84;65.23;94939.66;4384926;32;20236;-60
2022/08/14 05:36:19;;;;;;;0.97;0.97;;;;;;;17.74;64.70;94942.88;4390116;32;20230;-60
2022/08/14 05:38:46;;;;;;;0.40;0.40;;;;;;;17.85;65.76;94951.19;4383982;32;20184;-61
2022/08/14 05:41:23;;;;;;;1.20;1.20;;;;;;;18.00;65.03;94957.66;4381838;32;20211;-63
2022/08/14 05:43:49;;;;;;;1.17;1.17;;;;;;;18.10;65.35;94949.03;4384073;32;20226;-62
2022/08/14 05:46:21;;;;;;;0.70;0.70;;;;;;;18.18;65.15;94953.44;4402271;32;20192;-60
2022/08/14 05:48:52;;;;;;;0.80;0.80;;;;;;;18.15;64.46;94951.47;4380381;32;20180;-60
2022/08/14 05:51:24;;;;;;;1.23;1.23;;;;;;;18.28;64.87;94962.87;4373452;32;20196;-60
2022/08/14 05:53:50;;;;;;;0.67;0.67;;;;;;;18.35;64.62;94961.09;4384071;32;20197;-60
2022/08/14 05:56:37;;;;;;;0.60;0.60;;;;;;;18.49;64.13;94956.06;4380476;32;20181;-60
2022/08/14 05:59:04;;;;;;;1.00;1.00;;;;;;;18.38;63.91;94962.31;4380883;32;20263;-60
2022/08/14 06:01:29;;;;;;;0.77;0.77;;;;;;;18.37;63.42;94961.53;4367290;32;20284;-60
2022/08/14 06:03:55;;;;;;;1.13;1.13;;;;;;;18.57;63.93;94959.66;4376791;32;20203;-60
2022/08/14 06:06:39;;;;;;;0.70;0.70;;;;;;;18.53;62.94;94954.19;4380826;32;20188;-61
2022/08/14 06:09:07;;;;;;;0.43;0.43;;;;;;;18.67;63.52;94955.66;4367945;32;20267;-60
2022/08/14 06:11:33;;;;;;;0.60;0.60;;;;;;;18.77;63.13;94957.78;4381391;32;20200;-60
2022/08/14 06:13:58;;;;;;;0.60;0.60;;;;;;;18.86;62.36;94955.66;4373325;32;20193;-60
2022/08/14 06:16:24;;;;;;;0.80;0.80;;;;;;;19.02;62.34;94958.25;4374956;32;20180;-60
2022/08/14 06:18:50;;;;;;;0.50;0.50;;;;;;;18.94;62.42;94967.31;4385366;32;20192;-60
2022/08/14 06:21:30;;;;;;;0.40;0.40;;;;;;;19.05;62.39;94963.72;4386209;32;20197;-60
2022/08/14 06:23:56;;;;;;;0.60;0.60;;;;;;;19.12;62.78;94963.81;4375355;32;20196;-60
2022/08/14 06:26:24;;;;;;;0.60;0.60;;;;;;;19.20;62.50;94954.75;4391681;32;20200;-62
2022/08/14 06:28:50;;;;;;;0.67;0.67;;;;;;;19.20;61.66;94954.75;4383183;32;20229;-60
2022/08/14 06:31:21;;;;;;;0.87;0.87;;;;;;;19.22;62.44;94959.78;4376376;32;20201;-60
2022/08/14 06:33:47;;;;;;;1.23;1.23;;;;;;;19.29;62.64;94959.94;4379937;32;20188;-60
2022/08/14 06:36:24;;;;;;;0.87;0.87;;;;;;;19.36;62.63;94959.25;4373942;32;20276;-60
2022/08/14 06:38:51;;;;;;;0.60;0.60;;;;;;;19.38;62.74;94957.75;4380671;32;20188;-60
2022/08/14 06:41:27;;;;;;;0.60;0.60;;;;;;;19.50;62.20;94967.62;4374411;32;20201;-60
2022/08/14 06:43:52;;;;;;;0.80;0.80;;;;;;;19.75;62.28;94957.25;4394147;32;20184;-62
2022/08/14 06:46:43;;;;;;;0.30;0.30;;;;;;;20.00;61.62;94960.34;4365843;32;20181;-60
2022/08/14 06:49:08;;;;;;;0.60;0.60;;;;;;;20.18;60.86;94950.59;4368556;32;20180;-60
2022/08/14 06:51:34;;;;;;;1.03;0.70;;;;;;;20.21;60.47;94947.19;4389154;32;20184;-60
2022/08/14 06:54:00;;;;;;;0.50;0.50;;;;;;;20.17;60.09;94941.72;4379753;32;20231;-60
2022/08/14 06:56:38;;;;;;;0.77;0.77;;;;;;;20.16;60.82;94945.56;4381832;32;20188;-60
2022/08/14 06:59:04;;;;;;;0.70;0.70;;;;;;;20.14;61.19;94947.09;4371731;32;20218;-60
2022/08/14 07:06:57;;;;;;;0.70;0.70;;;;;;;20.36;60.07;94945.47;4377910;32;20202;-60
2022/08/14 07:09:23;;;;;;;0.60;0.60;;;;;;;20.40;60.18;94938.22;4377997;32;20192;-62
2022/08/14 07:11:49;;;;;;;0.60;0.60;;;;;;;20.45;61.01;94935.22;4386289;32;20188;-60
2022/08/14 07:14:14;;;;;;;3.73;1.20;;;;;;;20.53;57.33;94936.88;4383232;32;20199;-61
2022/08/14 07:16:39;;;;;;;0.20;0.20;;;;;;;20.72;58.80;94927.84;4375508;32;20220;-61
2022/08/14 07:19:07;;;;;;;1.20;0.80;;;;;;;20.83;55.47;94928.75;4375832;32;20207;-60
2022/08/14 07:21:33;;;;;;;1.00;1.00;;;;;;;20.97;54.65;94923.53;4373488;32;20204;-60
2022/08/14 07:23:58;;;;;;;0.60;0.60;;;;;;;21.06;54.44;94926.69;4382438;32;20210;-61
2022/08/14 07:26:23;;;;;;;0.70;0.70;;;;;;;21.14;54.26;94922.16;4376085;32;20184;-61
2022/08/14 07:28:49;;;;;;;1.03;1.03;;;;;;;21.24;53.86;94916.87;4386099;32;20184;-60
2022/08/14 07:31:23;;;;;;;0.83;0.83;;;;;;;21.32;53.74;94906.94;4381373;32;20200;-60
2022/08/14 07:33:48;;;;;;;0.40;0.40;;;;;;;21.38;53.70;94910.84;4377632;32;20206;-60
2022/08/14 07:36:29;;;;;;;0.73;0.70;;;;;;;21.44;53.52;94908.56;4376722;32;20185;-60
2022/08/14 07:38:55;;;;;;;0.40;0.40;;;;;;;21.51;53.23;94903.25;4387190;32;20188;-61
2022/08/14 07:41:23;;;;;;;0.70;0.70;;;;;;;21.57;53.82;94901.75;4391376;32;20237;-61
2022/08/14 07:43:48;;;;;;;0.30;0.30;;;;;;;21.66;52.45;94893.31;4383260;32;20223;-60
2022/08/14 07:46:32;;;;;;;0.53;0.53;;;;;;;21.77;52.09;94892.28;4379687;32;20193;-60
2022/08/14 07:48:59;;;;;;;0.60;0.60;;;;;;;21.95;51.45;94889.69;4371238;32;20199;-60
2022/08/14 07:51:33;;;;;;;0.83;0.83;;;;;;;21.94;52.33;94891.59;4387317;32;20250;-61
2022/08/14 07:53:59;;;;;;;0.70;0.70;;;;;;;21.98;51.89;94880.06;4381438;32;20225;-60
2022/08/14 07:56:30;;;;;;;0.40;0.40;;;;;;;22.08;51.29;94873.94;4383876;32;20248;-61
2022/08/14 07:58:56;;;;;;;0.77;0.77;;;;;;;22.27;50.51;94868.25;4373292;32;20214;-61
2022/08/14 08:01:29;;;;;;;0.73;0.73;;;;;;;22.27;49.81;94869.03;4396260;32;20192;-60
2022/08/14 08:03:57;;;;;;;0.20;0.20;;;;;;;22.49;48.79;94869.91;4384090;32;20188;-61
2022/08/14 08:06:24;;;;;;;0.73;0.73;;;;;;;22.51;48.43;94867.59;4387050;32;20204;-61
2022/08/14 08:08:52;;;;;;;4.20;1.13;;;;;;;22.68;48.00;94876.16;4384763;32;20264;-60
2022/08/14 08:11:21;;;;;;;0.37;0.37;;;;;;;22.78;47.04;94876.22;4391680;32;20294;-60
2022/08/14 08:13:49;;;;;;;0.97;0.97;;;;;;;22.87;47.07;94863.09;4372434;32;20200;-61
2022/08/14 08:16:30;;;;;;;0.40;0.40;;;;;;;22.90;47.04;94866.97;4371846;32;20195;-60
2022/08/14 08:18:55;;;;;;;0.53;0.53;;;;;;;22.96;46.98;94863.53;4372429;32;20206;-60
2022/08/14 08:21:30;;;;;;;0.47;0.47;;;;;;;23.09;46.26;94868.56;4377572;32;20193;-60
2022/08/14 08:23:55;;;;;;;0.47;0.47;;;;;;;23.17;45.84;94862.78;4371639;32;20203;-61
2022/08/14 08:26:30;;;;;;;0.33;0.33;;;;;;;23.26;45.71;94867.81;4384964;32;20192;-60
2022/08/14 08:28:57;;;;;;;0.37;0.37;;;;;;;23.26;45.62;94868.59;4377648;32;20236;-60
2022/08/14 08:31:22;;;;;;;0.67;0.67;;;;;;;23.20;46.03;94864.72;4374468;32;20189;-60
2022/08/14 08:33:51;;;;;;;0.80;0.77;;;;;;;23.32;45.43;94866.25;4375389;32;20197;-60
2022/08/14 08:36:23;;;;;;;0.80;0.80;;;;;;;23.43;45.20;94871.69;4387780;32;20202;-60
2022/08/14 08:38:49;;;;;;;0.60;0.60;;;;;;;23.55;44.58;94871.34;4364922;32;20195;-60
2022/08/14 08:41:21;;;;;;;6.40;0.93;;;;;;;23.52;44.88;94864.75;4364462;32;20199;-60
2022/08/14 08:43:47;;;;;;;1.20;1.03;;;;;;;23.62;44.39;94871.34;4377486;32;20181;-60
2022/08/14 08:46:27;;;;;;;32.40;24.60;;;;;;;23.62;44.30;94871.34;4379611;32;20397;-60
2022/08/14 08:48:57;;;;;;;1.70;0.50;;;;;;;23.57;44.66;94874.44;4370067;32;20184;-61
2022/08/14 08:51:24;;;;;;;2.70;2.60;;;;;;;23.68;44.51;94864.37;4368833;32;20201;-61
2022/08/14 08:54:04;;;;;;;2.63;2.43;;;;;;;23.68;44.43;94864.37;4380109;32;20207;-61
2022/08/14 08:56:36;;;;;;;0.80;0.80;;;;;;;23.74;44.74;94862.81;4378560;32;20283;-61
2022/08/14 08:59:14;;;;;;;0.53;0.53;;;;;;;23.80;44.71;94863.19;4363107;32;20204;-61
2022/08/14 09:01:39;;;;;;;12.63;7.23;;;;;;;23.96;44.10;94850.00;4362210;32;20238;-60
2022/08/14 09:04:05;;;;;;;2.17;2.07;;;;;;;24.03;43.69;94854.66;4379050;32;20200;-60
2022/08/14 09:06:30;;;;;;;2.93;2.47;;;;;;;24.09;43.53;94861.22;4373875;32;20188;-61
2022/08/14 09:08:56;;;;;;;11.43;9.03;;;;;;;24.17;43.24;94865.44;4387276;32;20187;-61
2022/08/14 09:11:23;;;;;;;1.00;1.00;;;;;;;24.22;43.10;94857.69;4384330;32;20197;-60
2022/08/14 09:13:52;;;;;;;9.93;6.30;;;;;;;24.24;43.17;94857.34;4383075;32;20224;-60
2022/08/14 09:16:27;;;;;;;0.60;0.60;;;;;;;24.30;43.09;94859.25;4394230;32;20310;-60
2022/08/14 09:18:53;;;;;;;1.60;1.60;;;;;;;24.29;43.26;94854.22;4377673;32;20211;-62
2022/08/14 09:21:38;;;;;;;2.13;2.03;;;;;;;24.29;43.07;94851.50;4379982;32;20184;-60
2022/08/14 09:24:06;;;;;;;1.90;1.80;;;;;;;24.42;42.76;94839.06;4385286;32;20207;-60
2022/08/14 09:26:31;;;;;;;0.40;0.40;;;;;;;24.46;42.50;94841.75;4366510;32;20184;-60
2022/08/14 09:28:56;;;;;;;1.00;0.97;;;;;;;24.44;42.52;94835.94;4382826;32;20210;-62
2022/08/14 09:31:24;;;;;;;0.73;0.73;;;;;;;24.47;42.66;94841.37;4382653;32;20226;-60
2022/08/14 09:33:52;;;;;;;1.13;1.00;;;;;;;24.61;42.52;94838.59;4382246;32;20208;-60
2022/08/14 09:36:36;;;;;;;0.30;0.30;;;;;;;24.53;42.80;94845.19;4377226;32;20192;-60
2022/08/14 09:43:04;;;;;;;0.50;0.50;;;;;;;24.64;42.65;94843.22;4374505;32;20244;-61
2022/08/14 09:45:43;;;;;;;1.10;1.10;;;;;;;24.76;42.10;94844.69;4377062;32;20220;-60
2022/08/14 09:48:19;;;;;;;0.40;0.40;;;;;;;24.84;41.74;94845.44;4392295;32;20253;-60
2022/08/14 09:50:52;;;;;;;0.97;0.97;;;;;;;24.83;41.58;94838.47;4372369;32;20192;-60
2022/08/14 09:53:43;;;;;;;0.60;0.60;;;;;;;24.91;41.10;94842.69;4386352;32;20184;-60
2022/08/14 09:56:10;;;;;;;1.03;0.97;;;;;;;24.87;41.22;94847.38;4380068;32;20188;-63
2022/08/14 09:58:42;;;;;;;0.47;0.47;;;;;;;24.96;41.01;94851.22;4378537;32;20211;-61
2022/08/14 10:01:09;;;;;;;0.80;0.80;;;;;;;24.96;41.23;94848.50;4379387;32;20200;-61
2022/08/14 10:03:36;;;;;;;0.30;0.30;;;;;;;25.05;40.88;94841.84;4380201;32;20208;-60
2022/08/14 10:06:28;;;;;;;0.70;0.70;;;;;;;24.96;40.82;94839.56;4376061;32;20211;-60
2022/08/14 10:09:04;;;;;;;0.80;0.80;;;;;;;25.04;40.38;94830.22;4373437;32;20257;-60
2022/08/14 10:11:35;;;;;;;0.50;0.50;;;;;;;25.01;40.44;94828.31;4374834;32;20202;-60
2022/08/14 10:14:33;;;;;;;0.87;0.87;;;;;;;25.14;40.41;94821.25;4378784;32;20181;-59
2022/08/14 10:17:01;;;;;;;0.67;0.67;;;;;;;25.24;40.78;94825.03;4369843;32;20181;-60
2022/08/14 10:19:27;;;;;;;0.90;0.90;;;;;;;25.28;40.65;94821.13;4371176;32;20185;-60
2022/08/14 10:21:59;;;;;;;0.57;0.57;;;;;;;25.27;39.52;94814.16;4378187;32;20203;-60
2022/08/14 10:24:45;;;;;;;0.60;0.60;;;;;;;25.28;39.60;94813.00;4380270;32;20260;-60
2022/08/14 10:27:17;;;;;;;0.60;0.60;;;;;;;25.40;38.84;94819.09;4375295;32;20236;-60
2022/08/14 10:29:47;;;;;;;0.90;0.77;;;;;;;25.36;38.83;94807.50;4382356;32;20191;-60
2022/08/14 10:32:12;;;;;;;0.70;0.70;;;;;;;25.31;38.78;94816.84;4383299;32;20176;-60
2022/08/14 10:34:39;;;;;;;0.43;0.43;;;;;;;25.33;38.45;94809.84;4386551;32;20246;-61
2022/08/14 10:37:09;;;;;;;0.87;0.87;;;;;;;25.39;38.96;94806.69;4386817;32;20200;-60
2022/08/14 10:39:37;;;;;;;0.90;0.90;;;;;;;25.34;39.48;94802.47;4378232;32;20202;-62
2022/08/14 10:42:05;;;;;;;0.87;0.87;;;;;;;25.31;38.57;94801.31;4376355;32;20185;-59
2022/08/14 10:44:37;;;;;;;0.63;0.63;;;;;;;25.48;37.67;94801.56;4366885;32;20199;-60
2022/08/14 10:47:08;;;;;;;0.20;0.20;;;;;;;25.42;38.23;94795.03;4380282;32;20193;-60
2022/08/14 10:49:34;;;;;;;0.43;0.43;;;;;;;25.37;38.19;94793.50;4370774;32;20228;-60
2022/08/14 10:52:08;;;;;;;3.70;1.47;;;;;;;25.38;38.23;94783.41;4372520;32;20204;-60
2022/08/14 10:54:43;;;;;;;0.53;0.53;;;;;;;25.58;37.89;94782.44;4375251;32;20195;-60
2022/08/14 10:57:11;;;;;;;0.70;0.70;;;;;;;25.70;37.65;94780.44;4378802;32;20188;-60
2022/08/14 10:59:41;;;;;;;0.50;0.50;;;;;;;25.77;36.84;94775.72;4383479;32;20184;-60
2022/08/14 11:02:22;;;;;;;0.40;0.40;;;;;;;25.77;36.91;94780.37;4380643;32;20177;-60
2022/08/14 11:05:11;;;;;;;0.63;0.63;;;;;;;25.83;37.77;94767.88;4370906;32;20192;-60
2022/08/14 11:07:39;;;;;;;0.77;0.77;;;;;;;25.79;37.39;94765.19;4363285;32;20185;-60
2022/08/14 11:10:11;;;;;;;0.50;0.30;;;;;;;25.78;36.09;94760.94;4380077;32;20228;-60
2022/08/14 11:12:46;;;;;;;0.33;0.33;;;;;;;25.80;36.59;94766.72;4361717;32;20193;-60
2022/08/14 11:15:17;;;;;;;0.30;0.30;;;;;;;25.79;36.61;94764.41;4372986;32;20195;-60
2022/08/14 11:17:46;;;;;;;0.60;0.60;;;;;;;25.80;36.66;94755.84;4372694;32;20188;-60
2022/08/14 11:20:13;;;;;;;0.40;0.40;;;;;;;25.91;36.29;94748.38;4376694;32;20270;-60
2022/08/14 11:22:41;;;;;;;0.50;0.50;;;;;;;25.86;36.52;94743.38;4380353;32;20188;-60
2022/08/14 11:25:12;;;;;;;0.67;0.67;;;;;;;25.93;35.46;94737.09;4380820;32;20191;-60
2022/08/14 11:27:41;;;;;;;0.93;0.93;;;;;;;26.03;35.55;94734.22;4368707;32;20233;-60
2022/08/14 11:30:12;;;;;;;0.83;0.83;;;;;;;26.12;35.85;94722.88;4378032;32;20247;-60
2022/08/14 11:32:49;;;;;;;0.90;0.90;;;;;;;26.20;36.13;94724.31;4381066;32;20198;-60
2022/08/14 11:35:18;;;;;;;0.70;0.70;;;;;;;26.15;36.71;94724.78;4378011;32;20245;-60
2022/08/14 11:37:50;;;;;;;0.43;0.43;;;;;;;26.21;35.93;94719.63;4375072;32;20277;-60
2022/08/14 11:40:16;;;;;;;5.23;2.17;;;;;;;26.13;36.17;94718.97;4379138;32;20218;-60
2022/08/14 11:42:44;;;;;;;3.17;2.97;;;;;;;26.14;36.50;94706.16;4369670;32;20188;-60
2022/08/14 11:45:10;;;;;;;9.47;8.47;;;;;;;26.12;36.05;94711.22;4367414;32;20189;-60
2022/08/14 11:47:37;;;;;;;1.70;1.60;;;;;;;26.29;35.90;94710.22;4376557;32;20268;-61
2022/08/14 11:50:33;;;;;;;0.60;0.60;;;;;;;26.30;35.76;94701.69;4385585;32;20249;-60
2022/08/14 11:53:01;;;;;;;2.60;2.30;;;;;;;26.38;35.33;94696.91;4323484;32;20194;-60
2022/08/14 11:55:33;;;;;;;3.70;3.37;;;;;;;26.40;35.26;94694.53;4377213;32;20185;-60
2022/08/14 11:58:05;;;;;;;4.07;3.63;;;;;;;26.45;35.08;94694.09;4383145;32;20193;-60
2022/08/14 12:00:32;;;;;;;0.90;0.90;;;;;;;26.55;34.77;94687.72;4372201;32;20176;-60
2022/08/14 12:02:59;;;;;;;49.70;40.10;;;;;;;26.65;34.09;94689.50;4370537;32;20203;-60
2022/08/14 12:05:38;;;;;;;6.60;6.07;;;;;;;26.62;33.85;94689.56;4371755;32;20228;-60